sensor_id;sensor_type;location;lat;lon;timestamp;P1;durP1;ratioP1;P2;durP2;ratioP2
25627;SDS011;40915;50.826;4.356;2022-07-29T00:01:46;5.35;;;1.85;;
25627;SDS011;40915;50.826;4.356;2022-07-29T00:04:12;6.75;;;1.75;;
25627;SDS011;40915;50.826;4.356;2022-07-29T00:06:37;5.22;;;1.63;;
25627;SDS011;40915;50.826;4.356;2022-07-29T00:09:03;5.93;;;1.70;;
25627;SDS011;40915;50.826;4.356;2022-07-29T00:11:29;6.28;;;1.83;;
25627;SDS011;40915;50.826;4.356;2022-07-29T00:13:54;4.53;;;1.80;;
25627;SDS011;40915;50.826;4.356;2022-07-29T00:16:20;3.90;;;1.40;;
25627;SDS011;40915;50.826;4.356;2022-07-29T00:18:46;7.30;;;1.60;;
25627;SDS011;40915;50.826;4.356;2022-07-29T00:21:11;4.13;;;1.63;;
25627;SDS011;40915;50.826;4.356;2022-07-29T00:23:37;5.20;;;1.92;;
25627;SDS011;40915;50.826;4.356;2022-07-29T00:26:02;7.25;;;1.98;;
25627;SDS011;40915;50.826;4.356;2022-07-29T00:28:28;3.28;;;1.80;;
25627;SDS011;40915;50.826;4.356;2022-07-29T00:30:54;3.17;;;1.70;;
25627;SDS011;40915;50.826;4.356;2022-07-29T00:33:19;4.05;;;1.50;;
25627;SDS011;40915;50.826;4.356;2022-07-29T00:35:45;6.00;;;2.00;;
25627;SDS011;40915;50.826;4.356;2022-07-29T00:38:14;4.53;;;1.30;;
25627;SDS011;40915;50.826;4.356;2022-07-29T00:40:44;4.30;;;1.48;;
25627;SDS011;40915;50.826;4.356;2022-07-29T00:43:11;6.32;;;1.70;;
25627;SDS011;40915;50.826;4.356;2022-07-29T00:45:38;4.60;;;1.70;;
25627;SDS011;40915;50.826;4.356;2022-07-29T00:48:04;4.47;;;1.77;;
25627;SDS011;40915;50.826;4.356;2022-07-29T00:50:31;7.22;;;1.70;;
25627;SDS011;40915;50.826;4.356;2022-07-29T00:52:58;5.00;;;1.48;;
25627;SDS011;40915;50.826;4.356;2022-07-29T00:55:23;5.13;;;1.73;;
25627;SDS011;40915;50.826;4.356;2022-07-29T00:57:49;2.75;;;1.48;;
25627;SDS011;40915;50.826;4.356;2022-07-29T01:00:19;2.72;;;1.50;;
25627;SDS011;40915;50.826;4.356;2022-07-29T01:02:47;4.25;;;1.50;;
25627;SDS011;40915;50.826;4.356;2022-07-29T01:05:13;3.40;;;1.38;;
25627;SDS011;40915;50.826;4.356;2022-07-29T01:07:41;2.95;;;1.70;;
25627;SDS011;40915;50.826;4.356;2022-07-29T01:10:08;6.00;;;1.60;;
25627;SDS011;40915;50.826;4.356;2022-07-29T01:12:35;3.72;;;1.60;;
25627;SDS011;40915;50.826;4.356;2022-07-29T01:15:03;3.67;;;1.67;;
25627;SDS011;40915;50.826;4.356;2022-07-29T01:30:18;6.70;;;1.60;;
25627;SDS011;40915;50.826;4.356;2022-07-29T01:32:47;3.17;;;1.60;;
25627;SDS011;40915;50.826;4.356;2022-07-29T01:35:22;2.22;;;1.40;;
25627;SDS011;40915;50.826;4.356;2022-07-29T01:38:00;4.00;;;1.70;;
25627;SDS011;40915;50.826;4.356;2022-07-29T01:43:20;4.00;;;1.50;;
25627;SDS011;40915;50.826;4.356;2022-07-29T01:45:54;6.32;;;1.50;;
25627;SDS011;40915;50.826;4.356;2022-07-29T01:48:23;2.63;;;1.38;;
25627;SDS011;40915;50.826;4.356;2022-07-29T01:51:05;3.13;;;1.45;;
25627;SDS011;40915;50.826;4.356;2022-07-29T01:53:34;2.80;;;1.80;;
25627;SDS011;40915;50.826;4.356;2022-07-29T01:56:02;5.28;;;1.88;;
25627;SDS011;40915;50.826;4.356;2022-07-29T01:58:29;7.10;;;1.80;;
25627;SDS011;40915;50.826;4.356;2022-07-29T02:00:57;2.60;;;1.38;;
25627;SDS011;40915;50.826;4.356;2022-07-29T02:03:24;4.40;;;1.50;;
25627;SDS011;40915;50.826;4.356;2022-07-29T02:05:51;4.60;;;1.40;;
25627;SDS011;40915;50.826;4.356;2022-07-29T02:08:18;3.35;;;1.42;;
25627;SDS011;40915;50.826;4.356;2022-07-29T02:10:45;2.65;;;1.65;;
25627;SDS011;40915;50.826;4.356;2022-07-29T02:13:12;2.47;;;1.42;;
25627;SDS011;40915;50.826;4.356;2022-07-29T02:15:39;3.17;;;1.63;;
25627;SDS011;40915;50.826;4.356;2022-07-29T02:18:09;5.05;;;1.75;;
25627;SDS011;40915;50.826;4.356;2022-07-29T02:20:36;3.40;;;1.60;;
25627;SDS011;40915;50.826;4.356;2022-07-29T02:23:04;4.10;;;1.58;;
25627;SDS011;40915;50.826;4.356;2022-07-29T02:25:32;3.30;;;1.50;;
25627;SDS011;40915;50.826;4.356;2022-07-29T02:27:58;5.32;;;1.90;;
25627;SDS011;40915;50.826;4.356;2022-07-29T02:30:25;4.05;;;1.40;;
25627;SDS011;40915;50.826;4.356;2022-07-29T02:32:52;2.15;;;1.52;;
25627;SDS011;40915;50.826;4.356;2022-07-29T02:35:19;3.05;;;1.65;;
25627;SDS011;40915;50.826;4.356;2022-07-29T02:37:45;5.32;;;1.75;;
25627;SDS011;40915;50.826;4.356;2022-07-29T02:40:36;4.20;;;1.95;;
25627;SDS011;40915;50.826;4.356;2022-07-29T02:43:03;3.30;;;1.40;;
25627;SDS011;40915;50.826;4.356;2022-07-29T02:45:31;6.15;;;1.60;;
25627;SDS011;40915;50.826;4.356;2022-07-29T02:47:57;3.60;;;1.60;;
25627;SDS011;40915;50.826;4.356;2022-07-29T02:50:34;7.03;;;1.70;;
25627;SDS011;40915;50.826;4.356;2022-07-29T02:53:12;3.20;;;1.40;;
25627;SDS011;40915;50.826;4.356;2022-07-29T02:55:43;4.05;;;1.60;;
25627;SDS011;40915;50.826;4.356;2022-07-29T03:00:38;4.50;;;1.70;;
25627;SDS011;40915;50.826;4.356;2022-07-29T03:03:10;5.18;;;1.58;;
25627;SDS011;40915;50.826;4.356;2022-07-29T03:05:37;4.32;;;1.90;;
25627;SDS011;40915;50.826;4.356;2022-07-29T03:08:07;5.22;;;1.63;;
25627;SDS011;40915;50.826;4.356;2022-07-29T03:10:35;5.82;;;1.80;;
25627;SDS011;40915;50.826;4.356;2022-07-29T03:13:05;2.80;;;1.83;;
25627;SDS011;40915;50.826;4.356;2022-07-29T03:15:32;3.83;;;1.77;;
25627;SDS011;40915;50.826;4.356;2022-07-29T03:17:58;6.55;;;1.75;;
25627;SDS011;40915;50.826;4.356;2022-07-29T03:20:25;2.75;;;1.50;;
25627;SDS011;40915;50.826;4.356;2022-07-29T03:22:51;3.63;;;1.50;;
25627;SDS011;40915;50.826;4.356;2022-07-29T03:25:18;3.33;;;1.60;;
25627;SDS011;40915;50.826;4.356;2022-07-29T03:27:44;6.15;;;1.88;;
25627;SDS011;40915;50.826;4.356;2022-07-29T03:30:11;4.57;;;1.90;;
25627;SDS011;40915;50.826;4.356;2022-07-29T03:32:37;5.00;;;2.00;;
25627;SDS011;40915;50.826;4.356;2022-07-29T03:35:04;4.20;;;2.05;;
25627;SDS011;40915;50.826;4.356;2022-07-29T03:37:30;6.80;;;2.22;;
25627;SDS011;40915;50.826;4.356;2022-07-29T03:39:58;11.02;;;2.60;;
25627;SDS011;40915;50.826;4.356;2022-07-29T03:42:24;7.28;;;2.00;;
25627;SDS011;40915;50.826;4.356;2022-07-29T03:44:51;9.30;;;2.45;;
25627;SDS011;40915;50.826;4.356;2022-07-29T03:47:19;8.32;;;2.08;;
25627;SDS011;40915;50.826;4.356;2022-07-29T03:49:47;7.55;;;2.28;;
25627;SDS011;40915;50.826;4.356;2022-07-29T03:52:14;3.95;;;1.77;;
25627;SDS011;40915;50.826;4.356;2022-07-29T03:54:40;5.80;;;2.08;;
25627;SDS011;40915;50.826;4.356;2022-07-29T03:57:06;5.45;;;1.75;;
25627;SDS011;40915;50.826;4.356;2022-07-29T03:59:33;3.97;;;1.80;;
25627;SDS011;40915;50.826;4.356;2022-07-29T04:01:59;7.13;;;2.25;;
25627;SDS011;40915;50.826;4.356;2022-07-29T04:04:25;5.65;;;2.17;;
25627;SDS011;40915;50.826;4.356;2022-07-29T04:06:51;4.65;;;1.90;;
25627;SDS011;40915;50.826;4.356;2022-07-29T04:09:17;5.22;;;2.13;;
25627;SDS011;40915;50.826;4.356;2022-07-29T04:11:43;8.70;;;2.33;;
25627;SDS011;40915;50.826;4.356;2022-07-29T04:14:10;6.57;;;2.17;;
25627;SDS011;40915;50.826;4.356;2022-07-29T04:16:36;9.63;;;2.50;;
25627;SDS011;40915;50.826;4.356;2022-07-29T04:19:02;6.40;;;2.10;;
25627;SDS011;40915;50.826;4.356;2022-07-29T04:21:28;5.63;;;2.47;;
25627;SDS011;40915;50.826;4.356;2022-07-29T04:23:54;4.05;;;2.10;;
25627;SDS011;40915;50.826;4.356;2022-07-29T04:26:20;8.57;;;2.30;;
25627;SDS011;40915;50.826;4.356;2022-07-29T04:28:46;5.05;;;2.17;;
25627;SDS011;40915;50.826;4.356;2022-07-29T04:31:12;4.95;;;2.30;;
25627;SDS011;40915;50.826;4.356;2022-07-29T04:33:39;8.13;;;2.35;;
25627;SDS011;40915;50.826;4.356;2022-07-29T04:36:04;10.82;;;2.90;;
25627;SDS011;40915;50.826;4.356;2022-07-29T04:38:30;5.75;;;2.20;;
25627;SDS011;40915;50.826;4.356;2022-07-29T04:40:56;5.53;;;2.20;;
25627;SDS011;40915;50.826;4.356;2022-07-29T04:43:21;5.57;;;2.40;;
25627;SDS011;40915;50.826;4.356;2022-07-29T04:45:47;6.88;;;2.38;;
25627;SDS011;40915;50.826;4.356;2022-07-29T04:48:12;7.78;;;2.10;;
25627;SDS011;40915;50.826;4.356;2022-07-29T04:50:38;6.20;;;2.55;;
25627;SDS011;40915;50.826;4.356;2022-07-29T04:53:04;7.47;;;2.70;;
25627;SDS011;40915;50.826;4.356;2022-07-29T04:55:30;7.35;;;2.63;;
25627;SDS011;40915;50.826;4.356;2022-07-29T04:57:56;7.78;;;2.58;;
25627;SDS011;40915;50.826;4.356;2022-07-29T05:00:22;7.38;;;2.45;;
25627;SDS011;40915;50.826;4.356;2022-07-29T05:02:48;4.53;;;2.38;;
25627;SDS011;40915;50.826;4.356;2022-07-29T05:05:14;5.10;;;2.80;;
25627;SDS011;40915;50.826;4.356;2022-07-29T05:07:40;8.45;;;2.75;;
25627;SDS011;40915;50.826;4.356;2022-07-29T05:10:06;7.82;;;3.05;;
25627;SDS011;40915;50.826;4.356;2022-07-29T05:12:32;7.25;;;2.85;;
25627;SDS011;40915;50.826;4.356;2022-07-29T05:14:58;5.63;;;3.13;;
25627;SDS011;40915;50.826;4.356;2022-07-29T05:17:23;5.07;;;2.70;;
25627;SDS011;40915;50.826;4.356;2022-07-29T05:19:49;11.20;;;3.20;;
25627;SDS011;40915;50.826;4.356;2022-07-29T05:22:16;5.68;;;2.60;;
25627;SDS011;40915;50.826;4.356;2022-07-29T05:24:43;5.25;;;2.47;;
25627;SDS011;40915;50.826;4.356;2022-07-29T05:27:09;7.30;;;2.72;;
25627;SDS011;40915;50.826;4.356;2022-07-29T05:29:34;5.63;;;3.40;;
25627;SDS011;40915;50.826;4.356;2022-07-29T05:32:00;3.67;;;2.58;;
25627;SDS011;40915;50.826;4.356;2022-07-29T05:34:26;6.30;;;3.47;;
25627;SDS011;40915;50.826;4.356;2022-07-29T05:36:52;6.88;;;2.78;;
25627;SDS011;40915;50.826;4.356;2022-07-29T05:39:17;6.13;;;2.50;;
25627;SDS011;40915;50.826;4.356;2022-07-29T05:41:43;8.50;;;3.42;;
25627;SDS011;40915;50.826;4.356;2022-07-29T05:44:08;4.53;;;3.05;;
25627;SDS011;40915;50.826;4.356;2022-07-29T05:46:34;6.95;;;2.40;;
25627;SDS011;40915;50.826;4.356;2022-07-29T05:48:59;5.13;;;2.50;;
25627;SDS011;40915;50.826;4.356;2022-07-29T05:51:26;8.20;;;2.78;;
25627;SDS011;40915;50.826;4.356;2022-07-29T05:53:51;7.43;;;2.50;;
25627;SDS011;40915;50.826;4.356;2022-07-29T05:56:17;5.70;;;3.00;;
25627;SDS011;40915;50.826;4.356;2022-07-29T05:58:43;7.53;;;3.35;;
25627;SDS011;40915;50.826;4.356;2022-07-29T06:01:08;7.20;;;3.17;;
25627;SDS011;40915;50.826;4.356;2022-07-29T06:03:34;5.05;;;2.67;;
25627;SDS011;40915;50.826;4.356;2022-07-29T06:06:02;6.85;;;2.72;;
25627;SDS011;40915;50.826;4.356;2022-07-29T06:08:28;5.28;;;2.95;;
25627;SDS011;40915;50.826;4.356;2022-07-29T06:10:54;8.25;;;2.85;;
25627;SDS011;40915;50.826;4.356;2022-07-29T06:13:19;4.55;;;3.00;;
25627;SDS011;40915;50.826;4.356;2022-07-29T06:15:45;6.07;;;2.90;;
25627;SDS011;40915;50.826;4.356;2022-07-29T06:18:11;3.50;;;2.28;;
25627;SDS011;40915;50.826;4.356;2022-07-29T06:20:38;7.13;;;3.00;;
25627;SDS011;40915;50.826;4.356;2022-07-29T06:23:03;9.45;;;2.95;;
25627;SDS011;40915;50.826;4.356;2022-07-29T06:25:29;6.25;;;2.97;;
25627;SDS011;40915;50.826;4.356;2022-07-29T06:27:57;11.40;;;3.25;;
25627;SDS011;40915;50.826;4.356;2022-07-29T06:30:25;6.13;;;2.30;;
25627;SDS011;40915;50.826;4.356;2022-07-29T06:32:52;3.47;;;2.53;;
25627;SDS011;40915;50.826;4.356;2022-07-29T06:35:20;4.63;;;2.80;;
25627;SDS011;40915;50.826;4.356;2022-07-29T06:37:46;6.68;;;2.85;;
25627;SDS011;40915;50.826;4.356;2022-07-29T06:40:12;6.22;;;3.05;;
25627;SDS011;40915;50.826;4.356;2022-07-29T06:42:56;6.65;;;2.85;;
25627;SDS011;40915;50.826;4.356;2022-07-29T06:45:22;5.32;;;2.60;;
25627;SDS011;40915;50.826;4.356;2022-07-29T06:47:49;6.68;;;2.70;;
25627;SDS011;40915;50.826;4.356;2022-07-29T06:50:15;4.30;;;2.50;;
25627;SDS011;40915;50.826;4.356;2022-07-29T06:52:40;6.80;;;2.83;;
25627;SDS011;40915;50.826;4.356;2022-07-29T06:55:08;7.07;;;2.95;;
25627;SDS011;40915;50.826;4.356;2022-07-29T06:57:34;5.57;;;3.45;;
25627;SDS011;40915;50.826;4.356;2022-07-29T06:59:59;3.92;;;2.50;;
25627;SDS011;40915;50.826;4.356;2022-07-29T07:02:25;10.45;;;3.30;;
25627;SDS011;40915;50.826;4.356;2022-07-29T07:04:51;7.40;;;2.88;;
25627;SDS011;40915;50.826;4.356;2022-07-29T07:07:17;6.65;;;2.90;;
25627;SDS011;40915;50.826;4.356;2022-07-29T07:09:42;5.70;;;3.03;;
25627;SDS011;40915;50.826;4.356;2022-07-29T07:12:08;8.20;;;3.20;;
25627;SDS011;40915;50.826;4.356;2022-07-29T07:14:34;5.82;;;2.80;;
25627;SDS011;40915;50.826;4.356;2022-07-29T07:16:59;6.22;;;2.50;;
25627;SDS011;40915;50.826;4.356;2022-07-29T07:19:25;6.80;;;2.97;;
25627;SDS011;40915;50.826;4.356;2022-07-29T07:21:52;4.43;;;3.10;;
25627;SDS011;40915;50.826;4.356;2022-07-29T07:24:18;7.47;;;3.35;;
25627;SDS011;40915;50.826;4.356;2022-07-29T07:26:43;7.13;;;2.85;;
25627;SDS011;40915;50.826;4.356;2022-07-29T07:29:09;6.68;;;2.75;;
25627;SDS011;40915;50.826;4.356;2022-07-29T07:31:36;6.60;;;2.95;;
25627;SDS011;40915;50.826;4.356;2022-07-29T07:34:02;8.32;;;3.20;;
25627;SDS011;40915;50.826;4.356;2022-07-29T07:36:27;5.40;;;2.60;;
25627;SDS011;40915;50.826;4.356;2022-07-29T07:38:53;6.32;;;2.88;;
25627;SDS011;40915;50.826;4.356;2022-07-29T07:41:19;6.15;;;2.90;;
25627;SDS011;40915;50.826;4.356;2022-07-29T07:43:45;6.68;;;2.88;;
25627;SDS011;40915;50.826;4.356;2022-07-29T07:46:11;9.48;;;3.42;;
25627;SDS011;40915;50.826;4.356;2022-07-29T07:48:37;6.43;;;2.90;;
25627;SDS011;40915;50.826;4.356;2022-07-29T07:51:05;6.80;;;2.85;;
25627;SDS011;40915;50.826;4.356;2022-07-29T07:53:32;7.03;;;3.38;;
25627;SDS011;40915;50.826;4.356;2022-07-29T07:55:58;5.43;;;2.80;;
25627;SDS011;40915;50.826;4.356;2022-07-29T07:58:24;7.40;;;3.60;;
25627;SDS011;40915;50.826;4.356;2022-07-29T08:00:50;7.78;;;3.05;;
25627;SDS011;40915;50.826;4.356;2022-07-29T08:03:16;7.47;;;3.25;;
25627;SDS011;40915;50.826;4.356;2022-07-29T08:05:42;5.75;;;3.28;;
25627;SDS011;40915;50.826;4.356;2022-07-29T08:08:08;4.28;;;2.40;;
25627;SDS011;40915;50.826;4.356;2022-07-29T08:10:34;7.75;;;3.05;;
25627;SDS011;40915;50.826;4.356;2022-07-29T08:13:21;7.50;;;3.30;;
25627;SDS011;40915;50.826;4.356;2022-07-29T08:15:48;6.50;;;2.80;;
25627;SDS011;40915;50.826;4.356;2022-07-29T08:18:22;4.55;;;2.40;;
25627;SDS011;40915;50.826;4.356;2022-07-29T08:20:48;6.20;;;2.65;;
25627;SDS011;40915;50.826;4.356;2022-07-29T08:23:14;8.30;;;2.70;;
25627;SDS011;40915;50.826;4.356;2022-07-29T08:25:41;8.20;;;2.97;;
25627;SDS011;40915;50.826;4.356;2022-07-29T08:28:07;4.82;;;2.50;;
25627;SDS011;40915;50.826;4.356;2022-07-29T08:30:33;8.23;;;3.30;;
25627;SDS011;40915;50.826;4.356;2022-07-29T08:32:59;5.03;;;2.60;;
25627;SDS011;40915;50.826;4.356;2022-07-29T08:35:26;9.65;;;3.05;;
25627;SDS011;40915;50.826;4.356;2022-07-29T08:37:52;6.40;;;2.63;;
25627;SDS011;40915;50.826;4.356;2022-07-29T08:40:21;3.92;;;2.75;;
25627;SDS011;40915;50.826;4.356;2022-07-29T08:42:48;7.38;;;2.45;;
25627;SDS011;40915;50.826;4.356;2022-07-29T08:45:14;6.80;;;2.20;;
25627;SDS011;40915;50.826;4.356;2022-07-29T08:47:41;4.10;;;2.10;;
25627;SDS011;40915;50.826;4.356;2022-07-29T08:50:08;5.28;;;2.10;;
25627;SDS011;40915;50.826;4.356;2022-07-29T08:52:36;8.50;;;2.33;;
25627;SDS011;40915;50.826;4.356;2022-07-29T08:55:03;5.18;;;2.05;;
25627;SDS011;40915;50.826;4.356;2022-07-29T08:57:30;4.75;;;2.28;;
25627;SDS011;40915;50.826;4.356;2022-07-29T08:59:57;3.58;;;2.20;;
25627;SDS011;40915;50.826;4.356;2022-07-29T09:02:25;4.85;;;2.40;;
25627;SDS011;40915;50.826;4.356;2022-07-29T09:04:54;3.78;;;2.15;;
25627;SDS011;40915;50.826;4.356;2022-07-29T09:07:23;3.85;;;2.08;;
25627;SDS011;40915;50.826;4.356;2022-07-29T09:09:48;5.70;;;2.40;;
25627;SDS011;40915;50.826;4.356;2022-07-29T09:12:14;5.50;;;2.75;;
25627;SDS011;40915;50.826;4.356;2022-07-29T09:14:41;4.18;;;2.10;;
25627;SDS011;40915;50.826;4.356;2022-07-29T09:17:07;8.50;;;2.40;;
25627;SDS011;40915;50.826;4.356;2022-07-29T09:19:33;5.28;;;2.25;;
25627;SDS011;40915;50.826;4.356;2022-07-29T09:22:01;7.90;;;2.50;;
25627;SDS011;40915;50.826;4.356;2022-07-29T09:27:00;7.78;;;2.30;;
25627;SDS011;40915;50.826;4.356;2022-07-29T09:29:26;3.92;;;2.10;;
25627;SDS011;40915;50.826;4.356;2022-07-29T09:31:53;4.97;;;2.00;;
25627;SDS011;40915;50.826;4.356;2022-07-29T09:34:23;5.05;;;2.00;;
25627;SDS011;40915;50.826;4.356;2022-07-29T09:36:55;5.70;;;2.33;;
25627;SDS011;40915;50.826;4.356;2022-07-29T09:39:29;4.93;;;2.40;;
25627;SDS011;40915;50.826;4.356;2022-07-29T09:41:57;7.72;;;2.40;;
25627;SDS011;40915;50.826;4.356;2022-07-29T09:44:25;3.78;;;2.20;;
25627;SDS011;40915;50.826;4.356;2022-07-29T09:49:35;7.15;;;2.92;;
25627;SDS011;40915;50.826;4.356;2022-07-29T09:52:16;5.78;;;2.70;;
25627;SDS011;40915;50.826;4.356;2022-07-29T09:54:42;6.45;;;2.60;;
25627;SDS011;40915;50.826;4.356;2022-07-29T09:57:09;6.13;;;2.65;;
25627;SDS011;40915;50.826;4.356;2022-07-29T10:02:21;8.68;;;2.75;;
25627;SDS011;40915;50.826;4.356;2022-07-29T10:04:47;8.27;;;2.17;;
25627;SDS011;40915;50.826;4.356;2022-07-29T10:07:13;4.70;;;2.28;;
25627;SDS011;40915;50.826;4.356;2022-07-29T10:09:39;4.28;;;2.47;;
25627;SDS011;40915;50.826;4.356;2022-07-29T10:12:20;3.13;;;1.95;;
25627;SDS011;40915;50.826;4.356;2022-07-29T10:14:45;4.75;;;2.15;;
25627;SDS011;40915;50.826;4.356;2022-07-29T10:17:12;4.32;;;1.95;;
25627;SDS011;40915;50.826;4.356;2022-07-29T10:19:38;5.18;;;2.20;;
25627;SDS011;40915;50.826;4.356;2022-07-29T10:22:06;5.25;;;2.20;;
25627;SDS011;40915;50.826;4.356;2022-07-29T10:24:33;3.92;;;2.00;;
25627;SDS011;40915;50.826;4.356;2022-07-29T10:27:01;6.68;;;2.40;;
25627;SDS011;40915;50.826;4.356;2022-07-29T10:29:29;8.27;;;2.17;;
25627;SDS011;40915;50.826;4.356;2022-07-29T10:40:31;5.28;;;1.90;;
25627;SDS011;40915;50.826;4.356;2022-07-29T10:43:41;4.00;;;1.73;;
25627;SDS011;40915;50.826;4.356;2022-07-29T10:46:09;3.83;;;2.10;;
25627;SDS011;40915;50.826;4.356;2022-07-29T10:51:53;6.95;;;2.60;;
25627;SDS011;40915;50.826;4.356;2022-07-29T10:57:17;6.07;;;2.53;;
25627;SDS011;40915;50.826;4.356;2022-07-29T11:10:33;4.10;;;2.10;;
25627;SDS011;40915;50.826;4.356;2022-07-29T11:12:58;6.20;;;2.40;;
25627;SDS011;40915;50.826;4.356;2022-07-29T11:15:24;6.20;;;1.90;;
25627;SDS011;40915;50.826;4.356;2022-07-29T11:23:19;8.15;;;2.90;;
25627;SDS011;40915;50.826;4.356;2022-07-29T11:31:16;4.13;;;2.03;;
25627;SDS011;40915;50.826;4.356;2022-07-29T11:33:44;5.93;;;2.58;;
25627;SDS011;40915;50.826;4.356;2022-07-29T11:36:11;7.35;;;2.15;;
25627;SDS011;40915;50.826;4.356;2022-07-29T11:38:38;5.32;;;2.22;;
25627;SDS011;40915;50.826;4.356;2022-07-29T11:49:20;7.25;;;3.00;;
25627;SDS011;40915;50.826;4.356;2022-07-29T11:51:53;8.07;;;3.92;;
25627;SDS011;40915;50.826;4.356;2022-07-29T11:54:27;5.75;;;3.08;;
25627;SDS011;40915;50.826;4.356;2022-07-29T11:56:58;6.53;;;3.28;;
25627;SDS011;40915;50.826;4.356;2022-07-29T11:59:24;6.68;;;2.80;;
25627;SDS011;40915;50.826;4.356;2022-07-29T12:01:54;9.73;;;3.22;;
25627;SDS011;40915;50.826;4.356;2022-07-29T12:04:20;5.72;;;2.50;;
25627;SDS011;40915;50.826;4.356;2022-07-29T12:06:51;6.18;;;2.50;;
25627;SDS011;40915;50.826;4.356;2022-07-29T12:09:18;5.18;;;2.55;;
25627;SDS011;40915;50.826;4.356;2022-07-29T12:11:45;6.03;;;2.17;;
25627;SDS011;40915;50.826;4.356;2022-07-29T12:14:29;6.80;;;2.65;;
25627;SDS011;40915;50.826;4.356;2022-07-29T12:16:56;5.93;;;3.10;;
25627;SDS011;40915;50.826;4.356;2022-07-29T12:19:22;5.57;;;2.50;;
25627;SDS011;40915;50.826;4.356;2022-07-29T12:21:49;5.57;;;2.70;;
25627;SDS011;40915;50.826;4.356;2022-07-29T12:24:16;11.73;;;3.08;;
25627;SDS011;40915;50.826;4.356;2022-07-29T12:29:19;7.68;;;2.33;;
25627;SDS011;40915;50.826;4.356;2022-07-29T12:31:45;5.32;;;2.20;;
25627;SDS011;40915;50.826;4.356;2022-07-29T12:34:12;7.35;;;2.60;;
25627;SDS011;40915;50.826;4.356;2022-07-29T12:36:38;5.00;;;2.75;;
25627;SDS011;40915;50.826;4.356;2022-07-29T12:39:05;9.18;;;3.03;;
25627;SDS011;40915;50.826;4.356;2022-07-29T12:41:31;6.47;;;2.30;;
25627;SDS011;40915;50.826;4.356;2022-07-29T12:43:57;8.77;;;2.33;;
25627;SDS011;40915;50.826;4.356;2022-07-29T12:46:23;5.43;;;1.92;;
25627;SDS011;40915;50.826;4.356;2022-07-29T12:48:51;9.20;;;2.95;;
25627;SDS011;40915;50.826;4.356;2022-07-29T12:51:32;4.50;;;2.63;;
25627;SDS011;40915;50.826;4.356;2022-07-29T12:54:06;6.60;;;2.10;;
25627;SDS011;40915;50.826;4.356;2022-07-29T12:56:35;5.47;;;2.28;;
25627;SDS011;40915;50.826;4.356;2022-07-29T12:59:11;4.63;;;2.60;;
25627;SDS011;40915;50.826;4.356;2022-07-29T13:01:38;7.57;;;2.33;;
25627;SDS011;40915;50.826;4.356;2022-07-29T13:04:04;4.22;;;1.92;;
25627;SDS011;40915;50.826;4.356;2022-07-29T13:09:03;7.65;;;2.28;;
25627;SDS011;40915;50.826;4.356;2022-07-29T13:13:59;8.02;;;2.30;;
25627;SDS011;40915;50.826;4.356;2022-07-29T13:16:25;4.43;;;2.05;;
25627;SDS011;40915;50.826;4.356;2022-07-29T13:19:02;5.60;;;2.35;;
25627;SDS011;40915;50.826;4.356;2022-07-29T13:21:29;9.23;;;2.10;;
25627;SDS011;40915;50.826;4.356;2022-07-29T13:23:55;6.40;;;2.40;;
25627;SDS011;40915;50.826;4.356;2022-07-29T13:26:21;6.03;;;2.10;;
25627;SDS011;40915;50.826;4.356;2022-07-29T13:28:46;4.47;;;2.25;;
25627;SDS011;40915;50.826;4.356;2022-07-29T13:31:12;4.32;;;2.00;;
25627;SDS011;40915;50.826;4.356;2022-07-29T13:33:37;5.97;;;2.00;;
25627;SDS011;40915;50.826;4.356;2022-07-29T13:36:03;5.10;;;1.98;;
25627;SDS011;40915;50.826;4.356;2022-07-29T13:38:29;7.28;;;2.22;;
25627;SDS011;40915;50.826;4.356;2022-07-29T13:40:54;4.53;;;2.00;;
25627;SDS011;40915;50.826;4.356;2022-07-29T13:43:20;6.07;;;1.85;;
25627;SDS011;40915;50.826;4.356;2022-07-29T13:45:45;6.85;;;1.90;;
25627;SDS011;40915;50.826;4.356;2022-07-29T13:48:11;3.60;;;1.75;;
25627;SDS011;40915;50.826;4.356;2022-07-29T13:50:36;10.65;;;3.30;;
25627;SDS011;40915;50.826;4.356;2022-07-29T13:53:02;5.18;;;1.92;;
25627;SDS011;40915;50.826;4.356;2022-07-29T13:55:28;5.25;;;1.70;;
25627;SDS011;40915;50.826;4.356;2022-07-29T13:57:54;6.53;;;2.40;;
25627;SDS011;40915;50.826;4.356;2022-07-29T14:00:20;4.95;;;1.88;;
25627;SDS011;40915;50.826;4.356;2022-07-29T14:02:46;7.30;;;1.60;;
25627;SDS011;40915;50.826;4.356;2022-07-29T14:05:11;2.50;;;1.90;;
25627;SDS011;40915;50.826;4.356;2022-07-29T14:07:37;3.90;;;1.95;;
25627;SDS011;40915;50.826;4.356;2022-07-29T14:10:06;8.82;;;1.65;;
25627;SDS011;40915;50.826;4.356;2022-07-29T14:12:32;5.22;;;1.70;;
25627;SDS011;40915;50.826;4.356;2022-07-29T14:14:58;4.68;;;1.92;;
25627;SDS011;40915;50.826;4.356;2022-07-29T14:17:23;3.13;;;1.40;;
25627;SDS011;40915;50.826;4.356;2022-07-29T14:19:49;3.45;;;1.50;;
25627;SDS011;40915;50.826;4.356;2022-07-29T14:22:15;4.10;;;1.60;;
25627;SDS011;40915;50.826;4.356;2022-07-29T14:24:40;7.03;;;1.95;;
25627;SDS011;40915;50.826;4.356;2022-07-29T14:27:06;4.88;;;1.90;;
25627;SDS011;40915;50.826;4.356;2022-07-29T14:29:32;6.25;;;1.75;;
25627;SDS011;40915;50.826;4.356;2022-07-29T14:31:58;6.03;;;1.98;;
25627;SDS011;40915;50.826;4.356;2022-07-29T14:34:24;11.95;;;2.50;;
25627;SDS011;40915;50.826;4.356;2022-07-29T14:36:50;3.25;;;1.65;;
25627;SDS011;40915;50.826;4.356;2022-07-29T14:39:15;4.75;;;1.75;;
25627;SDS011;40915;50.826;4.356;2022-07-29T14:41:41;3.05;;;1.85;;
25627;SDS011;40915;50.826;4.356;2022-07-29T14:44:07;5.15;;;2.03;;
25627;SDS011;40915;50.826;4.356;2022-07-29T14:46:33;5.47;;;1.75;;
25627;SDS011;40915;50.826;4.356;2022-07-29T14:48:59;3.95;;;1.20;;
25627;SDS011;40915;50.826;4.356;2022-07-29T14:51:24;4.30;;;1.67;;
25627;SDS011;40915;50.826;4.356;2022-07-29T14:53:50;3.47;;;1.50;;
25627;SDS011;40915;50.826;4.356;2022-07-29T14:56:16;2.92;;;1.50;;
25627;SDS011;40915;50.826;4.356;2022-07-29T14:58:41;4.65;;;1.52;;
25627;SDS011;40915;50.826;4.356;2022-07-29T15:01:07;4.75;;;1.65;;
25627;SDS011;40915;50.826;4.356;2022-07-29T15:03:32;6.35;;;2.30;;
25627;SDS011;40915;50.826;4.356;2022-07-29T15:05:58;4.95;;;2.00;;
25627;SDS011;40915;50.826;4.356;2022-07-29T15:08:24;4.47;;;1.73;;
25627;SDS011;40915;50.826;4.356;2022-07-29T15:10:50;4.53;;;1.90;;
25627;SDS011;40915;50.826;4.356;2022-07-29T15:13:16;4.72;;;1.85;;
25627;SDS011;40915;50.826;4.356;2022-07-29T15:15:41;8.02;;;2.03;;
25627;SDS011;40915;50.826;4.356;2022-07-29T15:18:07;3.65;;;1.50;;
25627;SDS011;40915;50.826;4.356;2022-07-29T15:20:34;3.35;;;1.65;;
25627;SDS011;40915;50.826;4.356;2022-07-29T15:22:59;6.15;;;2.28;;
25627;SDS011;40915;50.826;4.356;2022-07-29T15:25:25;3.75;;;1.63;;
25627;SDS011;40915;50.826;4.356;2022-07-29T15:27:51;4.28;;;2.10;;
25627;SDS011;40915;50.826;4.356;2022-07-29T15:30:17;4.10;;;1.60;;
25627;SDS011;40915;50.826;4.356;2022-07-29T15:32:43;3.75;;;1.60;;
25627;SDS011;40915;50.826;4.356;2022-07-29T15:35:29;3.22;;;1.75;;
25627;SDS011;40915;50.826;4.356;2022-07-29T15:37:55;6.85;;;2.08;;
25627;SDS011;40915;50.826;4.356;2022-07-29T15:40:20;4.88;;;1.90;;
25627;SDS011;40915;50.826;4.356;2022-07-29T15:42:46;5.85;;;2.25;;
25627;SDS011;40915;50.826;4.356;2022-07-29T15:45:11;3.67;;;2.42;;
25627;SDS011;40915;50.826;4.356;2022-07-29T15:47:37;4.78;;;2.13;;
25627;SDS011;40915;50.826;4.356;2022-07-29T15:50:03;4.20;;;2.30;;
25627;SDS011;40915;50.826;4.356;2022-07-29T15:52:29;7.10;;;2.50;;
25627;SDS011;40915;50.826;4.356;2022-07-29T15:54:55;5.63;;;2.60;;
25627;SDS011;40915;50.826;4.356;2022-07-29T15:57:21;5.13;;;2.35;;
25627;SDS011;40915;50.826;4.356;2022-07-29T15:59:48;4.70;;;2.70;;
25627;SDS011;40915;50.826;4.356;2022-07-29T16:02:14;4.30;;;2.60;;
25627;SDS011;40915;50.826;4.356;2022-07-29T16:04:40;7.50;;;2.30;;
25627;SDS011;40915;50.826;4.356;2022-07-29T16:07:05;5.70;;;2.47;;